sensor_id;sensor_type;location;lat;lon;timestamp;P1;durP1;ratioP1;P2;durP2;ratioP2
68310;SDS011;55157;51.036;17.058;2022-12-04T00:01:16;143.50;;;66.03;;
68310;SDS011;55157;51.036;17.058;2022-12-04T00:03:43;126.75;;;61.63;;
68310;SDS011;55157;51.036;17.058;2022-12-04T00:06:08;136.10;;;61.92;;
68310;SDS011;55157;51.036;17.058;2022-12-04T00:08:34;124.20;;;61.50;;
68310;SDS011;55157;51.036;17.058;2022-12-04T00:10:59;123.57;;;60.53;;
68310;SDS011;55157;51.036;17.058;2022-12-04T00:13:26;131.93;;;62.72;;
68310;SDS011;55157;51.036;17.058;2022-12-04T00:15:51;135.50;;;62.67;;
68310;SDS011;55157;51.036;17.058;2022-12-04T00:18:16;130.73;;;62.45;;
68310;SDS011;55157;51.036;17.058;2022-12-04T00:20:42;132.48;;;63.00;;
68310;SDS011;55157;51.036;17.058;2022-12-04T00:23:07;144.38;;;63.08;;
68310;SDS011;55157;51.036;17.058;2022-12-04T00:25:32;136.50;;;63.38;;
68310;SDS011;55157;51.036;17.058;2022-12-04T00:27:58;141.93;;;62.90;;
68310;SDS011;55157;51.036;17.058;2022-12-04T00:30:24;132.65;;;61.30;;
68310;SDS011;55157;51.036;17.058;2022-12-04T00:32:50;135.35;;;62.05;;
68310;SDS011;55157;51.036;17.058;2022-12-04T00:35:15;128.32;;;61.90;;
68310;SDS011;55157;51.036;17.058;2022-12-04T00:37:40;140.98;;;63.65;;
68310;SDS011;55157;51.036;17.058;2022-12-04T00:40:06;141.50;;;62.22;;
68310;SDS011;55157;51.036;17.058;2022-12-04T00:42:33;137.43;;;63.40;;
68310;SDS011;55157;51.036;17.058;2022-12-04T00:44:58;132.55;;;62.10;;
68310;SDS011;55157;51.036;17.058;2022-12-04T00:47:24;128.82;;;62.25;;
68310;SDS011;55157;51.036;17.058;2022-12-04T00:49:50;123.70;;;58.75;;
68310;SDS011;55157;51.036;17.058;2022-12-04T00:52:15;124.57;;;60.40;;
68310;SDS011;55157;51.036;17.058;2022-12-04T00:54:40;131.45;;;59.25;;
68310;SDS011;55157;51.036;17.058;2022-12-04T00:57:05;124.05;;;58.33;;
68310;SDS011;55157;51.036;17.058;2022-12-04T00:59:31;133.05;;;61.33;;
68310;SDS011;55157;51.036;17.058;2022-12-04T01:01:56;132.18;;;59.45;;
68310;SDS011;55157;51.036;17.058;2022-12-04T01:04:23;129.27;;;60.60;;
68310;SDS011;55157;51.036;17.058;2022-12-04T01:06:48;119.90;;;57.50;;
68310;SDS011;55157;51.036;17.058;2022-12-04T01:09:13;114.10;;;54.70;;
68310;SDS011;55157;51.036;17.058;2022-12-04T01:11:39;123.82;;;57.72;;
68310;SDS011;55157;51.036;17.058;2022-12-04T01:14:04;133.60;;;59.50;;
68310;SDS011;55157;51.036;17.058;2022-12-04T01:16:30;124.22;;;59.47;;
68310;SDS011;55157;51.036;17.058;2022-12-04T01:18:55;130.10;;;58.75;;
68310;SDS011;55157;51.036;17.058;2022-12-04T01:21:23;121.10;;;58.90;;
68310;SDS011;55157;51.036;17.058;2022-12-04T01:23:48;125.13;;;58.60;;
68310;SDS011;55157;51.036;17.058;2022-12-04T01:26:14;137.20;;;61.63;;
68310;SDS011;55157;51.036;17.058;2022-12-04T01:28:39;131.90;;;60.70;;
68310;SDS011;55157;51.036;17.058;2022-12-04T01:31:05;122.40;;;61.88;;
68310;SDS011;55157;51.036;17.058;2022-12-04T01:33:31;120.82;;;58.75;;
68310;SDS011;55157;51.036;17.058;2022-12-04T01:35:58;126.25;;;58.95;;
68310;SDS011;55157;51.036;17.058;2022-12-04T01:38:25;117.72;;;56.28;;
68310;SDS011;55157;51.036;17.058;2022-12-04T01:40:50;119.13;;;56.38;;
68310;SDS011;55157;51.036;17.058;2022-12-04T01:43:16;121.75;;;60.58;;
68310;SDS011;55157;51.036;17.058;2022-12-04T01:45:42;119.18;;;54.95;;
68310;SDS011;55157;51.036;17.058;2022-12-04T01:48:09;125.30;;;56.25;;
68310;SDS011;55157;51.036;17.058;2022-12-04T01:50:36;107.57;;;53.47;;
68310;SDS011;55157;51.036;17.058;2022-12-04T01:53:02;107.75;;;50.63;;
68310;SDS011;55157;51.036;17.058;2022-12-04T01:55:29;107.75;;;53.15;;
68310;SDS011;55157;51.036;17.058;2022-12-04T01:57:55;117.05;;;55.00;;
68310;SDS011;55157;51.036;17.058;2022-12-04T02:00:20;118.35;;;56.97;;
68310;SDS011;55157;51.036;17.058;2022-12-04T02:02:46;109.80;;;52.47;;
68310;SDS011;55157;51.036;17.058;2022-12-04T02:05:12;112.03;;;57.30;;
68310;SDS011;55157;51.036;17.058;2022-12-04T02:07:37;127.85;;;56.80;;
68310;SDS011;55157;51.036;17.058;2022-12-04T02:10:04;114.18;;;54.30;;
68310;SDS011;55157;51.036;17.058;2022-12-04T02:12:31;110.25;;;54.17;;
68310;SDS011;55157;51.036;17.058;2022-12-04T02:14:59;112.32;;;54.10;;
68310;SDS011;55157;51.036;17.058;2022-12-04T02:17:28;109.70;;;56.15;;
68310;SDS011;55157;51.036;17.058;2022-12-04T02:19:59;105.93;;;50.88;;
68310;SDS011;55157;51.036;17.058;2022-12-04T02:22:29;121.43;;;56.72;;
68310;SDS011;55157;51.036;17.058;2022-12-04T02:25:03;115.22;;;54.40;;
68310;SDS011;55157;51.036;17.058;2022-12-04T02:27:42;111.53;;;52.78;;
68310;SDS011;55157;51.036;17.058;2022-12-04T02:30:10;117.72;;;57.30;;
68310;SDS011;55157;51.036;17.058;2022-12-04T02:32:37;119.18;;;53.60;;
68310;SDS011;55157;51.036;17.058;2022-12-04T02:35:05;130.15;;;57.13;;
68310;SDS011;55157;51.036;17.058;2022-12-04T02:37:34;122.85;;;55.50;;
68310;SDS011;55157;51.036;17.058;2022-12-04T02:40:01;124.22;;;56.92;;
68310;SDS011;55157;51.036;17.058;2022-12-04T02:42:29;132.75;;;59.53;;
68310;SDS011;55157;51.036;17.058;2022-12-04T02:44:58;125.43;;;59.00;;
68310;SDS011;55157;51.036;17.058;2022-12-04T02:47:25;122.07;;;55.45;;
68310;SDS011;55157;51.036;17.058;2022-12-04T02:49:52;106.43;;;52.17;;
68310;SDS011;55157;51.036;17.058;2022-12-04T02:52:20;121.25;;;55.88;;
68310;SDS011;55157;51.036;17.058;2022-12-04T02:54:48;118.68;;;59.03;;
68310;SDS011;55157;51.036;17.058;2022-12-04T02:57:15;136.57;;;59.83;;
68310;SDS011;55157;51.036;17.058;2022-12-04T02:59:43;131.00;;;61.78;;
68310;SDS011;55157;51.036;17.058;2022-12-04T03:02:11;130.73;;;60.80;;
68310;SDS011;55157;51.036;17.058;2022-12-04T03:04:38;129.63;;;59.63;;
68310;SDS011;55157;51.036;17.058;2022-12-04T03:07:08;123.00;;;58.22;;
68310;SDS011;55157;51.036;17.058;2022-12-04T03:09:35;123.30;;;58.38;;
68310;SDS011;55157;51.036;17.058;2022-12-04T03:12:03;122.78;;;57.42;;
68310;SDS011;55157;51.036;17.058;2022-12-04T03:14:31;122.63;;;57.72;;
68310;SDS011;55157;51.036;17.058;2022-12-04T03:16:58;120.47;;;56.45;;
68310;SDS011;55157;51.036;17.058;2022-12-04T03:19:27;117.97;;;57.08;;
68310;SDS011;55157;51.036;17.058;2022-12-04T03:21:55;124.35;;;57.78;;
68310;SDS011;55157;51.036;17.058;2022-12-04T03:24:22;118.65;;;55.63;;
68310;SDS011;55157;51.036;17.058;2022-12-04T03:26:49;111.60;;;57.40;;
68310;SDS011;55157;51.036;17.058;2022-12-04T03:29:17;117.30;;;55.67;;
68310;SDS011;55157;51.036;17.058;2022-12-04T03:31:44;123.50;;;55.97;;
68310;SDS011;55157;51.036;17.058;2022-12-04T03:34:10;114.80;;;54.83;;
68310;SDS011;55157;51.036;17.058;2022-12-04T03:36:40;121.00;;;56.45;;
68310;SDS011;55157;51.036;17.058;2022-12-04T03:39:07;122.43;;;59.13;;
68310;SDS011;55157;51.036;17.058;2022-12-04T03:41:38;108.38;;;51.72;;
68310;SDS011;55157;51.036;17.058;2022-12-04T03:44:06;112.05;;;53.60;;
68310;SDS011;55157;51.036;17.058;2022-12-04T03:46:33;107.93;;;53.08;;
68310;SDS011;55157;51.036;17.058;2022-12-04T03:49:01;107.22;;;53.97;;
68310;SDS011;55157;51.036;17.058;2022-12-04T03:51:28;109.38;;;53.75;;
68310;SDS011;55157;51.036;17.058;2022-12-04T03:54:00;105.00;;;52.30;;
68310;SDS011;55157;51.036;17.058;2022-12-04T03:56:27;115.68;;;54.08;;
68310;SDS011;55157;51.036;17.058;2022-12-04T03:58:54;107.50;;;54.65;;
68310;SDS011;55157;51.036;17.058;2022-12-04T04:01:22;108.78;;;51.88;;
68310;SDS011;55157;51.036;17.058;2022-12-04T04:03:49;97.13;;;49.55;;
68310;SDS011;55157;51.036;17.058;2022-12-04T04:06:17;113.07;;;54.60;;
68310;SDS011;55157;51.036;17.058;2022-12-04T04:08:44;110.32;;;53.70;;
68310;SDS011;55157;51.036;17.058;2022-12-04T04:11:15;101.50;;;50.25;;
68310;SDS011;55157;51.036;17.058;2022-12-04T04:13:42;105.15;;;51.75;;
68310;SDS011;55157;51.036;17.058;2022-12-04T04:16:08;115.47;;;53.90;;
68310;SDS011;55157;51.036;17.058;2022-12-04T04:18:37;105.97;;;52.28;;
68310;SDS011;55157;51.036;17.058;2022-12-04T04:21:03;109.55;;;53.80;;
68310;SDS011;55157;51.036;17.058;2022-12-04T04:23:28;113.40;;;53.22;;
68310;SDS011;55157;51.036;17.058;2022-12-04T04:25:55;120.35;;;54.70;;
68310;SDS011;55157;51.036;17.058;2022-12-04T04:28:27;108.95;;;54.80;;
68310;SDS011;55157;51.036;17.058;2022-12-04T04:30:54;111.32;;;54.60;;
68310;SDS011;55157;51.036;17.058;2022-12-04T04:33:21;111.10;;;54.42;;
68310;SDS011;55157;51.036;17.058;2022-12-04T04:35:49;106.10;;;48.63;;
68310;SDS011;55157;51.036;17.058;2022-12-04T04:38:18;107.47;;;52.35;;
68310;SDS011;55157;51.036;17.058;2022-12-04T04:40:45;110.75;;;53.75;;
68310;SDS011;55157;51.036;17.058;2022-12-04T04:43:14;103.80;;;49.45;;
68310;SDS011;55157;51.036;17.058;2022-12-04T04:45:44;104.00;;;49.65;;
68310;SDS011;55157;51.036;17.058;2022-12-04T04:48:12;103.95;;;50.83;;
68310;SDS011;55157;51.036;17.058;2022-12-04T04:50:38;98.95;;;51.30;;
68310;SDS011;55157;51.036;17.058;2022-12-04T04:53:06;95.57;;;48.05;;
68310;SDS011;55157;51.036;17.058;2022-12-04T04:55:32;96.47;;;48.75;;
68310;SDS011;55157;51.036;17.058;2022-12-04T04:58:04;108.85;;;49.95;;
68310;SDS011;55157;51.036;17.058;2022-12-04T05:00:30;96.93;;;49.55;;
68310;SDS011;55157;51.036;17.058;2022-12-04T05:02:56;101.88;;;50.17;;
68310;SDS011;55157;51.036;17.058;2022-12-04T05:05:22;100.70;;;49.83;;
68310;SDS011;55157;51.036;17.058;2022-12-04T05:07:47;113.82;;;54.90;;
68310;SDS011;55157;51.036;17.058;2022-12-04T05:10:12;104.32;;;51.35;;
68310;SDS011;55157;51.036;17.058;2022-12-04T05:12:37;135.45;;;58.92;;
68310;SDS011;55157;51.036;17.058;2022-12-04T05:15:03;188.15;;;74.05;;
68310;SDS011;55157;51.036;17.058;2022-12-04T05:17:28;174.90;;;73.38;;
68310;SDS011;55157;51.036;17.058;2022-12-04T05:19:55;193.93;;;77.30;;
68310;SDS011;55157;51.036;17.058;2022-12-04T05:22:22;182.02;;;73.40;;
68310;SDS011;55157;51.036;17.058;2022-12-04T05:24:47;180.52;;;75.63;;
68310;SDS011;55157;51.036;17.058;2022-12-04T05:27:13;186.20;;;77.05;;
68310;SDS011;55157;51.036;17.058;2022-12-04T05:29:38;200.40;;;81.50;;
68310;SDS011;55157;51.036;17.058;2022-12-04T05:32:03;195.50;;;80.55;;
68310;SDS011;55157;51.036;17.058;2022-12-04T05:34:29;204.73;;;84.93;;
68310;SDS011;55157;51.036;17.058;2022-12-04T05:36:56;201.60;;;83.13;;
68310;SDS011;55157;51.036;17.058;2022-12-04T05:39:21;189.80;;;78.70;;
68310;SDS011;55157;51.036;17.058;2022-12-04T05:41:46;172.95;;;71.93;;
68310;SDS011;55157;51.036;17.058;2022-12-04T05:44:13;184.48;;;73.97;;
68310;SDS011;55157;51.036;17.058;2022-12-04T05:46:38;160.48;;;69.38;;
68310;SDS011;55157;51.036;17.058;2022-12-04T05:49:03;165.40;;;70.47;;
68310;SDS011;55157;51.036;17.058;2022-12-04T05:51:29;141.98;;;65.43;;
68310;SDS011;55157;51.036;17.058;2022-12-04T05:53:56;129.82;;;62.92;;
68310;SDS011;55157;51.036;17.058;2022-12-04T05:56:21;131.88;;;61.95;;
68310;SDS011;55157;51.036;17.058;2022-12-04T05:58:46;125.97;;;60.75;;
68310;SDS011;55157;51.036;17.058;2022-12-04T06:01:12;134.30;;;59.08;;
68310;SDS011;55157;51.036;17.058;2022-12-04T06:03:38;117.43;;;57.20;;
68310;SDS011;55157;51.036;17.058;2022-12-04T06:06:08;121.47;;;54.55;;
68310;SDS011;55157;51.036;17.058;2022-12-04T06:08:34;117.13;;;54.65;;
68310;SDS011;55157;51.036;17.058;2022-12-04T06:11:00;122.68;;;58.22;;
68310;SDS011;55157;51.036;17.058;2022-12-04T06:13:25;107.38;;;51.92;;
68310;SDS011;55157;51.036;17.058;2022-12-04T06:15:51;115.97;;;55.53;;
68310;SDS011;55157;51.036;17.058;2022-12-04T06:18:16;121.88;;;59.47;;
68310;SDS011;55157;51.036;17.058;2022-12-04T06:20:41;110.43;;;54.45;;
68310;SDS011;55157;51.036;17.058;2022-12-04T06:23:06;119.25;;;52.95;;
68310;SDS011;55157;51.036;17.058;2022-12-04T06:25:32;125.60;;;53.95;;
68310;SDS011;55157;51.036;17.058;2022-12-04T06:27:59;113.50;;;53.78;;
68310;SDS011;55157;51.036;17.058;2022-12-04T06:30:24;123.85;;;56.50;;
68310;SDS011;55157;51.036;17.058;2022-12-04T06:32:49;115.20;;;54.38;;
68310;SDS011;55157;51.036;17.058;2022-12-04T06:35:15;119.65;;;55.97;;
68310;SDS011;55157;51.036;17.058;2022-12-04T06:37:40;114.53;;;53.53;;
68310;SDS011;55157;51.036;17.058;2022-12-04T06:40:06;117.68;;;55.47;;
68310;SDS011;55157;51.036;17.058;2022-12-04T06:42:31;120.88;;;57.40;;
68310;SDS011;55157;51.036;17.058;2022-12-04T06:44:58;114.90;;;53.08;;
68310;SDS011;55157;51.036;17.058;2022-12-04T06:47:23;114.45;;;55.47;;
68310;SDS011;55157;51.036;17.058;2022-12-04T06:49:48;126.32;;;57.67;;
68310;SDS011;55157;51.036;17.058;2022-12-04T06:52:14;117.63;;;55.67;;
68310;SDS011;55157;51.036;17.058;2022-12-04T06:54:39;115.07;;;55.63;;
68310;SDS011;55157;51.036;17.058;2022-12-04T06:57:04;119.00;;;58.13;;
68310;SDS011;55157;51.036;17.058;2022-12-04T06:59:29;112.03;;;55.83;;
68310;SDS011;55157;51.036;17.058;2022-12-04T07:01:56;114.03;;;56.00;;
68310;SDS011;55157;51.036;17.058;2022-12-04T07:04:21;119.13;;;58.28;;
68310;SDS011;55157;51.036;17.058;2022-12-04T07:06:47;128.32;;;59.50;;
68310;SDS011;55157;51.036;17.058;2022-12-04T07:09:12;125.60;;;62.30;;
68310;SDS011;55157;51.036;17.058;2022-12-04T07:11:38;134.13;;;64.57;;
68310;SDS011;55157;51.036;17.058;2022-12-04T07:14:04;137.88;;;64.15;;
68310;SDS011;55157;51.036;17.058;2022-12-04T07:16:29;125.97;;;62.08;;
68310;SDS011;55157;51.036;17.058;2022-12-04T07:18:56;126.15;;;61.88;;
68310;SDS011;55157;51.036;17.058;2022-12-04T07:21:22;129.00;;;63.92;;
68310;SDS011;55157;51.036;17.058;2022-12-04T07:23:48;144.15;;;67.38;;
68310;SDS011;55157;51.036;17.058;2022-12-04T07:26:13;146.95;;;68.13;;
68310;SDS011;55157;51.036;17.058;2022-12-04T07:28:38;131.70;;;68.88;;
68310;SDS011;55157;51.036;17.058;2022-12-04T07:31:04;130.75;;;67.93;;
68310;SDS011;55157;51.036;17.058;2022-12-04T07:33:29;150.18;;;69.95;;
68310;SDS011;55157;51.036;17.058;2022-12-04T07:35:57;131.20;;;64.22;;
68310;SDS011;55157;51.036;17.058;2022-12-04T07:38:22;119.55;;;63.15;;
68310;SDS011;55157;51.036;17.058;2022-12-04T07:40:47;129.30;;;63.85;;
68310;SDS011;55157;51.036;17.058;2022-12-04T07:43:12;123.25;;;62.75;;
68310;SDS011;55157;51.036;17.058;2022-12-04T07:45:38;131.18;;;66.93;;
68310;SDS011;55157;51.036;17.058;2022-12-04T07:48:03;116.57;;;59.38;;
68310;SDS011;55157;51.036;17.058;2022-12-04T07:50:28;127.15;;;62.63;;
68310;SDS011;55157;51.036;17.058;2022-12-04T07:52:55;122.50;;;60.08;;
68310;SDS011;55157;51.036;17.058;2022-12-04T07:55:20;117.32;;;59.40;;
68310;SDS011;55157;51.036;17.058;2022-12-04T07:57:46;106.90;;;56.55;;
68310;SDS011;55157;51.036;17.058;2022-12-04T08:00:12;112.22;;;59.08;;
68310;SDS011;55157;51.036;17.058;2022-12-04T08:02:37;112.88;;;57.83;;
68310;SDS011;55157;51.036;17.058;2022-12-04T08:05:03;103.75;;;56.58;;
68310;SDS011;55157;51.036;17.058;2022-12-04T08:07:28;112.50;;;56.28;;
68310;SDS011;55157;51.036;17.058;2022-12-04T08:09:54;109.10;;;56.08;;
68310;SDS011;55157;51.036;17.058;2022-12-04T08:12:20;105.10;;;55.80;;
68310;SDS011;55157;51.036;17.058;2022-12-04T08:14:45;110.60;;;55.22;;
68310;SDS011;55157;51.036;17.058;2022-12-04T08:17:10;107.95;;;54.63;;
68310;SDS011;55157;51.036;17.058;2022-12-04T08:19:35;108.20;;;54.92;;
68310;SDS011;55157;51.036;17.058;2022-12-04T08:22:01;107.63;;;56.95;;
68310;SDS011;55157;51.036;17.058;2022-12-04T08:24:26;99.80;;;52.28;;
68310;SDS011;55157;51.036;17.058;2022-12-04T08:26:53;102.07;;;51.55;;
68310;SDS011;55157;51.036;17.058;2022-12-04T08:29:18;98.38;;;52.97;;
68310;SDS011;55157;51.036;17.058;2022-12-04T08:31:43;97.00;;;54.22;;
68310;SDS011;55157;51.036;17.058;2022-12-04T08:34:09;96.05;;;52.58;;
68310;SDS011;55157;51.036;17.058;2022-12-04T08:36:34;97.93;;;52.83;;
68310;SDS011;55157;51.036;17.058;2022-12-04T08:38:59;101.28;;;51.85;;
68310;SDS011;55157;51.036;17.058;2022-12-04T08:41:25;105.95;;;55.47;;
68310;SDS011;55157;51.036;17.058;2022-12-04T08:43:52;102.55;;;54.88;;
68310;SDS011;55157;51.036;17.058;2022-12-04T08:46:18;95.07;;;54.47;;
68310;SDS011;55157;51.036;17.058;2022-12-04T08:48:43;99.45;;;53.25;;
68310;SDS011;55157;51.036;17.058;2022-12-04T08:51:10;109.50;;;53.67;;
68310;SDS011;55157;51.036;17.058;2022-12-04T08:53:36;97.75;;;54.72;;
68310;SDS011;55157;51.036;17.058;2022-12-04T08:56:02;94.93;;;51.97;;
68310;SDS011;55157;51.036;17.058;2022-12-04T08:58:27;97.07;;;52.80;;
68310;SDS011;55157;51.036;17.058;2022-12-04T09:00:54;91.25;;;52.95;;
68310;SDS011;55157;51.036;17.058;2022-12-04T09:03:20;98.55;;;54.38;;
68310;SDS011;55157;51.036;17.058;2022-12-04T09:05:45;92.65;;;50.72;;
68310;SDS011;55157;51.036;17.058;2022-12-04T09:08:10;92.85;;;52.97;;
68310;SDS011;55157;51.036;17.058;2022-12-04T09:10:36;98.25;;;53.53;;
68310;SDS011;55157;51.036;17.058;2022-12-04T09:13:01;90.32;;;50.47;;
68310;SDS011;55157;51.036;17.058;2022-12-04T09:15:27;88.78;;;49.20;;
68310;SDS011;55157;51.036;17.058;2022-12-04T09:17:54;90.78;;;52.10;;
68310;SDS011;55157;51.036;17.058;2022-12-04T09:20:19;93.78;;;52.15;;
68310;SDS011;55157;51.036;17.058;2022-12-04T09:22:44;94.15;;;52.15;;
68310;SDS011;55157;51.036;17.058;2022-12-04T09:25:09;90.10;;;51.67;;
68310;SDS011;55157;51.036;17.058;2022-12-04T09:27:35;86.95;;;52.15;;
68310;SDS011;55157;51.036;17.058;2022-12-04T09:30:00;93.40;;;54.17;;
68310;SDS011;55157;51.036;17.058;2022-12-04T09:32:25;96.82;;;53.08;;
68310;SDS011;55157;51.036;17.058;2022-12-04T09:34:52;94.43;;;54.33;;
68310;SDS011;55157;51.036;17.058;2022-12-04T09:37:17;88.95;;;52.47;;
68310;SDS011;55157;51.036;17.058;2022-12-04T09:39:42;100.20;;;51.75;;
68310;SDS011;55157;51.036;17.058;2022-12-04T09:42:10;89.20;;;51.90;;
68310;SDS011;55157;51.036;17.058;2022-12-04T09:44:38;85.80;;;51.00;;
68310;SDS011;55157;51.036;17.058;2022-12-04T09:47:05;90.15;;;52.33;;
68310;SDS011;55157;51.036;17.058;2022-12-04T09:49:34;82.50;;;49.35;;
68310;SDS011;55157;51.036;17.058;2022-12-04T09:52:02;79.82;;;49.22;;
68310;SDS011;55157;51.036;17.058;2022-12-04T09:54:32;78.65;;;48.40;;
68310;SDS011;55157;51.036;17.058;2022-12-04T09:57:02;86.32;;;48.67;;
68310;SDS011;55157;51.036;17.058;2022-12-04T09:59:29;80.28;;;47.63;;
68310;SDS011;55157;51.036;17.058;2022-12-04T10:01:57;82.70;;;48.67;;
68310;SDS011;55157;51.036;17.058;2022-12-04T10:04:24;83.15;;;46.03;;
68310;SDS011;55157;51.036;17.058;2022-12-04T10:06:52;81.97;;;46.72;;
68310;SDS011;55157;51.036;17.058;2022-12-04T10:09:21;81.30;;;48.45;;
68310;SDS011;55157;51.036;17.058;2022-12-04T10:11:50;77.70;;;46.33;;
68310;SDS011;55157;51.036;17.058;2022-12-04T10:14:19;87.65;;;47.67;;
68310;SDS011;55157;51.036;17.058;2022-12-04T10:16:52;77.47;;;46.58;;
68310;SDS011;55157;51.036;17.058;2022-12-04T10:19:23;73.35;;;45.90;;
68310;SDS011;55157;51.036;17.058;2022-12-04T10:21:51;83.68;;;49.35;;
68310;SDS011;55157;51.036;17.058;2022-12-04T10:24:22;82.93;;;47.70;;
68310;SDS011;55157;51.036;17.058;2022-12-04T10:26:52;78.40;;;47.58;;
68310;SDS011;55157;51.036;17.058;2022-12-04T10:29:19;77.60;;;45.47;;
68310;SDS011;55157;51.036;17.058;2022-12-04T10:31:45;75.43;;;45.08;;
68310;SDS011;55157;51.036;17.058;2022-12-04T10:34:12;71.97;;;43.03;;
68310;SDS011;55157;51.036;17.058;2022-12-04T10:36:39;78.72;;;46.15;;
68310;SDS011;55157;51.036;17.058;2022-12-04T10:39:06;80.28;;;45.58;;
68310;SDS011;55157;51.036;17.058;2022-12-04T10:41:37;68.57;;;42.58;;
68310;SDS011;55157;51.036;17.058;2022-12-04T10:44:04;78.65;;;42.70;;
68310;SDS011;55157;51.036;17.058;2022-12-04T10:46:30;80.72;;;44.35;;
68310;SDS011;55157;51.036;17.058;2022-12-04T10:48:58;68.00;;;40.92;;
68310;SDS011;55157;51.036;17.058;2022-12-04T10:51:24;71.65;;;41.60;;
68310;SDS011;55157;51.036;17.058;2022-12-04T10:53:49;69.35;;;43.40;;
68310;SDS011;55157;51.036;17.058;2022-12-04T10:56:16;72.15;;;43.80;;
68310;SDS011;55157;51.036;17.058;2022-12-04T10:58:43;72.60;;;44.75;;
68310;SDS011;55157;51.036;17.058;2022-12-04T11:01:19;73.43;;;43.42;;
68310;SDS011;55157;51.036;17.058;2022-12-04T11:03:45;78.65;;;43.92;;
68310;SDS011;55157;51.036;17.058;2022-12-04T11:06:12;75.80;;;43.70;;
68310;SDS011;55157;51.036;17.058;2022-12-04T11:08:40;66.90;;;41.92;;
68310;SDS011;55157;51.036;17.058;2022-12-04T11:11:07;69.72;;;44.15;;
68310;SDS011;55157;51.036;17.058;2022-12-04T11:13:33;68.78;;;42.17;;
68310;SDS011;55157;51.036;17.058;2022-12-04T11:16:00;69.80;;;43.60;;
68310;SDS011;55157;51.036;17.058;2022-12-04T11:18:26;68.82;;;41.33;;
68310;SDS011;55157;51.036;17.058;2022-12-04T11:20:52;75.22;;;42.03;;
68310;SDS011;55157;51.036;17.058;2022-12-04T11:23:18;77.85;;;44.40;;
68310;SDS011;55157;51.036;17.058;2022-12-04T11:25:44;76.57;;;45.05;;
68310;SDS011;55157;51.036;17.058;2022-12-04T11:28:11;75.95;;;43.90;;
68310;SDS011;55157;51.036;17.058;2022-12-04T11:30:37;71.32;;;43.47;;
68310;SDS011;55157;51.036;17.058;2022-12-04T11:33:05;76.10;;;44.13;;
68310;SDS011;55157;51.036;17.058;2022-12-04T11:35:32;73.22;;;43.85;;
68310;SDS011;55157;51.036;17.058;2022-12-04T11:38:05;74.03;;;43.35;;
68310;SDS011;55157;51.036;17.058;2022-12-04T11:40:31;82.38;;;45.10;;
68310;SDS011;55157;51.036;17.058;2022-12-04T11:42:58;105.20;;;51.38;;
68310;SDS011;55157;51.036;17.058;2022-12-04T11:45:24;91.93;;;49.60;;
68310;SDS011;55157;51.036;17.058;2022-12-04T11:47:53;84.95;;;46.70;;
68310;SDS011;55157;51.036;17.058;2022-12-04T11:50:21;89.63;;;45.25;;
68310;SDS011;55157;51.036;17.058;2022-12-04T11:52:51;95.32;;;48.47;;
68310;SDS011;55157;51.036;17.058;2022-12-04T11:55:21;97.25;;;51.63;;
68310;SDS011;55157;51.036;17.058;2022-12-04T11:57:51;92.72;;;51.88;;
68310;SDS011;55157;51.036;17.058;2022-12-04T12:00:21;88.90;;;46.72;;
68310;SDS011;55157;51.036;17.058;2022-12-04T12:02:55;126.65;;;64.20;;
68310;SDS011;55157;51.036;17.058;2022-12-04T12:05:36;99.63;;;54.08;;
68310;SDS011;55157;51.036;17.058;2022-12-04T12:08:04;90.40;;;52.00;;
68310;SDS011;55157;51.036;17.058;2022-12-04T12:10:34;120.40;;;63.28;;
68310;SDS011;55157;51.036;17.058;2022-12-04T12:13:04;99.78;;;53.15;;
68310;SDS011;55157;51.036;17.058;2022-12-04T12:15:31;99.45;;;52.53;;
68310;SDS011;55157;51.036;17.058;2022-12-04T12:18:05;119.68;;;60.53;;
68310;SDS011;55157;51.036;17.058;2022-12-04T12:20:35;131.98;;;63.53;;
68310;SDS011;55157;51.036;17.058;2022-12-04T12:23:15;141.85;;;68.20;;
68310;SDS011;55157;51.036;17.058;2022-12-04T12:25:46;90.22;;;50.22;;
68310;SDS011;55157;51.036;17.058;2022-12-04T12:28:15;80.18;;;48.13;;
68310;SDS011;55157;51.036;17.058;2022-12-04T12:30:46;79.47;;;45.67;;
68310;SDS011;55157;51.036;17.058;2022-12-04T12:33:16;78.90;;;45.00;;
68310;SDS011;55157;51.036;17.058;2022-12-04T12:35:44;78.53;;;45.50;;
68310;SDS011;55157;51.036;17.058;2022-12-04T12:38:13;76.15;;;45.05;;
68310;SDS011;55157;51.036;17.058;2022-12-04T12:40:39;80.72;;;47.67;;
68310;SDS011;55157;51.036;17.058;2022-12-04T12:43:05;88.20;;;47.97;;
68310;SDS011;55157;51.036;17.058;2022-12-04T12:45:32;81.72;;;44.65;;
68310;SDS011;55157;51.036;17.058;2022-12-04T12:48:01;80.32;;;45.65;;
68310;SDS011;55157;51.036;17.058;2022-12-04T12:50:31;77.13;;;43.03;;
68310;SDS011;55157;51.036;17.058;2022-12-04T12:53:02;76.03;;;43.72;;
68310;SDS011;55157;51.036;17.058;2022-12-04T12:55:29;76.60;;;43.13;;
68310;SDS011;55157;51.036;17.058;2022-12-04T12:57:58;77.85;;;43.55;;
68310;SDS011;55157;51.036;17.058;2022-12-04T13:00:24;81.80;;;44.63;;
68310;SDS011;55157;51.036;17.058;2022-12-04T13:02:51;81.40;;;45.60;;
68310;SDS011;55157;51.036;17.058;2022-12-04T13:05:18;81.25;;;46.47;;
68310;SDS011;55157;51.036;17.058;2022-12-04T13:07:46;80.22;;;46.67;;
68310;SDS011;55157;51.036;17.058;2022-12-04T13:10:16;77.28;;;44.55;;
68310;SDS011;55157;51.036;17.058;2022-12-04T13:12:44;84.45;;;46.90;;
68310;SDS011;55157;51.036;17.058;2022-12-04T13:15:12;83.90;;;48.05;;
68310;SDS011;55157;51.036;17.058;2022-12-04T13:17:37;76.72;;;44.60;;
68310;SDS011;55157;51.036;17.058;2022-12-04T13:20:04;79.78;;;44.80;;
68310;SDS011;55157;51.036;17.058;2022-12-04T13:22:32;74.32;;;43.90;;
68310;SDS011;55157;51.036;17.058;2022-12-04T13:25:05;86.00;;;47.13;;
68310;SDS011;55157;51.036;17.058;2022-12-04T13:27:39;79.95;;;46.97;;
68310;SDS011;55157;51.036;17.058;2022-12-04T13:30:09;81.07;;;47.20;;
68310;SDS011;55157;51.036;17.058;2022-12-04T13:32:44;81.38;;;45.95;;
68310;SDS011;55157;51.036;17.058;2022-12-04T13:35:15;75.57;;;42.90;;
68310;SDS011;55157;51.036;17.058;2022-12-04T13:37:51;79.28;;;44.78;;
68310;SDS011;55157;51.036;17.058;2022-12-04T13:40:27;78.55;;;45.13;;
68310;SDS011;55157;51.036;17.058;2022-12-04T13:45:34;80.18;;;46.85;;
68310;SDS011;55157;51.036;17.058;2022-12-04T13:48:00;79.90;;;44.95;;
68310;SDS011;55157;51.036;17.058;2022-12-04T13:50:27;80.65;;;45.10;;
68310;SDS011;55157;51.036;17.058;2022-12-04T13:52:52;82.53;;;45.55;;
68310;SDS011;55157;51.036;17.058;2022-12-04T13:55:22;79.60;;;46.97;;
68310;SDS011;55157;51.036;17.058;2022-12-04T13:57:51;89.55;;;52.00;;
68310;SDS011;55157;51.036;17.058;2022-12-04T14:00:23;81.85;;;48.53;;
68310;SDS011;55157;51.036;17.058;2022-12-04T14:02:50;95.70;;;51.13;;